sensor_id;sensor_type;location;lat;lon;timestamp;temperature;humidity
68109;SHT30;54893;49.864;19.084;2022-11-20T00:00:16;-4.22;95.17
68109;SHT30;54893;49.864;19.084;2022-11-20T00:05:17;-4.23;94.92
68109;SHT30;54893;49.864;19.084;2022-11-20T00:10:18;-4.23;94.98
68109;SHT30;54893;49.864;19.084;2022-11-20T00:15:18;-4.30;95.15
68109;SHT30;54893;49.864;19.084;2022-11-20T00:20:19;-4.33;95.43
68109;SHT30;54893;49.864;19.084;2022-11-20T00:25:19;-4.32;95.39
68109;SHT30;54893;49.864;19.084;2022-11-20T00:30:19;-4.49;95.80
68109;SHT30;54893;49.864;19.084;2022-11-20T00:35:19;-4.67;95.84
68109;SHT30;54893;49.864;19.084;2022-11-20T00:40:20;-4.76;95.98
68109;SHT30;54893;49.864;19.084;2022-11-20T00:45:20;-4.87;96.11
68109;SHT30;54893;49.864;19.084;2022-11-20T00:50:21;-5.00;96.32
68109;SHT30;54893;49.864;19.084;2022-11-20T00:55:21;-5.00;96.02
68109;SHT30;54893;49.864;19.084;2022-11-20T01:00:21;-5.11;95.77
68109;SHT30;54893;49.864;19.084;2022-11-20T01:05:22;-5.14;95.55
68109;SHT30;54893;49.864;19.084;2022-11-20T01:10:22;-5.22;95.24
68109;SHT30;54893;49.864;19.084;2022-11-20T01:15:22;-5.31;95.68
68109;SHT30;54893;49.864;19.084;2022-11-20T01:20:23;-5.31;96.44
68109;SHT30;54893;49.864;19.084;2022-11-20T01:25:23;-5.45;96.21
68109;SHT30;54893;49.864;19.084;2022-11-20T01:30:23;-5.56;95.92
68109;SHT30;54893;49.864;19.084;2022-11-20T01:35:24;-5.61;95.83
68109;SHT30;54893;49.864;19.084;2022-11-20T01:40:24;-5.64;96.40
68109;SHT30;54893;49.864;19.084;2022-11-20T01:50:47;-5.66;96.80
68109;SHT30;54893;49.864;19.084;2022-11-20T01:55:50;-5.65;96.59
68109;SHT30;54893;49.864;19.084;2022-11-20T02:00:51;-5.65;95.97
68109;SHT30;54893;49.864;19.084;2022-11-20T02:06:04;-5.65;95.48
68109;SHT30;54893;49.864;19.084;2022-11-20T02:11:05;-5.76;96.41
68109;SHT30;54893;49.864;19.084;2022-11-20T02:16:10;-5.95;95.85
68109;SHT30;54893;49.864;19.084;2022-11-20T02:26:19;-5.86;95.78
68109;SHT30;54893;49.864;19.084;2022-11-20T02:31:21;-5.89;96.76
68109;SHT30;54893;49.864;19.084;2022-11-20T02:36:21;-6.00;96.85
68109;SHT30;54893;49.864;19.084;2022-11-20T02:41:33;-5.93;97.01
68109;SHT30;54893;49.864;19.084;2022-11-20T02:46:34;-5.92;97.30
68109;SHT30;54893;49.864;19.084;2022-11-20T02:51:34;-6.00;97.72
68109;SHT30;54893;49.864;19.084;2022-11-20T02:56:38;-5.95;97.59
68109;SHT30;54893;49.864;19.084;2022-11-20T03:01:38;-6.00;97.83
68109;SHT30;54893;49.864;19.084;2022-11-20T03:06:38;-6.00;97.93
68109;SHT30;54893;49.864;19.084;2022-11-20T03:11:39;-6.16;97.82
68109;SHT30;54893;49.864;19.084;2022-11-20T03:16:39;-6.13;97.63
68109;SHT30;54893;49.864;19.084;2022-11-20T03:21:40;-6.06;97.38
68109;SHT30;54893;49.864;19.084;2022-11-20T03:26:41;-5.75;96.22
68109;SHT30;54893;49.864;19.084;2022-11-20T03:31:41;-5.56;95.59
68109;SHT30;54893;49.864;19.084;2022-11-20T03:36:42;-5.66;95.98
68109;SHT30;54893;49.864;19.084;2022-11-20T03:41:42;-5.65;96.06
68109;SHT30;54893;49.864;19.084;2022-11-20T03:46:43;-5.71;96.16
68109;SHT30;54893;49.864;19.084;2022-11-20T03:51:43;-5.86;96.30
68109;SHT30;54893;49.864;19.084;2022-11-20T03:56:44;-6.05;96.74
68109;SHT30;54893;49.864;19.084;2022-11-20T04:01:44;-6.13;96.97
68109;SHT30;54893;49.864;19.084;2022-11-20T04:06:44;-6.07;97.24
68109;SHT30;54893;49.864;19.084;2022-11-20T04:11:45;-6.02;97.15
68109;SHT30;54893;49.864;19.084;2022-11-20T04:16:45;-5.89;98.16
68109;SHT30;54893;49.864;19.084;2022-11-20T04:21:45;-5.82;97.17
68109;SHT30;54893;49.864;19.084;2022-11-20T04:26:46;-5.69;97.57
68109;SHT30;54893;49.864;19.084;2022-11-20T04:31:46;-5.47;96.83
68109;SHT30;54893;49.864;19.084;2022-11-20T04:36:46;-5.24;97.57
68109;SHT30;54893;49.864;19.084;2022-11-20T04:41:47;-5.27;96.49
68109;SHT30;54893;49.864;19.084;2022-11-20T04:46:47;-5.15;95.43
68109;SHT30;54893;49.864;19.084;2022-11-20T04:51:47;-5.12;95.61
68109;SHT30;54893;49.864;19.084;2022-11-20T04:56:48;-5.05;95.42
68109;SHT30;54893;49.864;19.084;2022-11-20T05:01:48;-5.01;96.29
68109;SHT30;54893;49.864;19.084;2022-11-20T05:06:49;-5.01;96.12
68109;SHT30;54893;49.864;19.084;2022-11-20T05:11:50;-4.90;96.20
68109;SHT30;54893;49.864;19.084;2022-11-20T05:16:50;-5.00;95.54
68109;SHT30;54893;49.864;19.084;2022-11-20T05:21:51;-5.07;95.20
68109;SHT30;54893;49.864;19.084;2022-11-20T05:26:51;-5.07;96.32
68109;SHT30;54893;49.864;19.084;2022-11-20T05:31:51;-5.14;96.74
68109;SHT30;54893;49.864;19.084;2022-11-20T05:36:51;-5.22;96.78
68109;SHT30;54893;49.864;19.084;2022-11-20T05:41:52;-5.04;94.97
68109;SHT30;54893;49.864;19.084;2022-11-20T05:47:12;-4.86;95.51
68109;SHT30;54893;49.864;19.084;2022-11-20T05:52:12;-4.77;93.67
68109;SHT30;54893;49.864;19.084;2022-11-20T05:57:13;-4.86;94.41
68109;SHT30;54893;49.864;19.084;2022-11-20T06:02:13;-5.10;95.26
68109;SHT30;54893;49.864;19.084;2022-11-20T06:07:14;-5.17;95.81
68109;SHT30;54893;49.864;19.084;2022-11-20T06:12:14;-5.22;95.93
68109;SHT30;54893;49.864;19.084;2022-11-20T06:17:14;-5.31;96.73
68109;SHT30;54893;49.864;19.084;2022-11-20T06:22:15;-5.25;96.87
68109;SHT30;54893;49.864;19.084;2022-11-20T06:27:15;-5.24;96.96
68109;SHT30;54893;49.864;19.084;2022-11-20T06:32:16;-5.48;96.85
68109;SHT30;54893;49.864;19.084;2022-11-20T06:37:16;-5.61;96.99
68109;SHT30;54893;49.864;19.084;2022-11-20T06:42:16;-5.71;97.50
68109;SHT30;54893;49.864;19.084;2022-11-20T06:47:17;-5.66;97.85
68109;SHT30;54893;49.864;19.084;2022-11-20T06:52:17;-5.31;97.35
68109;SHT30;54893;49.864;19.084;2022-11-20T06:57:17;-4.80;96.72
68109;SHT30;54893;49.864;19.084;2022-11-20T07:02:18;-4.49;96.10
68109;SHT30;54893;49.864;19.084;2022-11-20T07:07:18;-4.10;95.88
68109;SHT30;54893;49.864;19.084;2022-11-20T07:12:18;-3.68;94.92
68109;SHT30;54893;49.864;19.084;2022-11-20T07:17:19;-3.28;94.16
68109;SHT30;54893;49.864;19.084;2022-11-20T07:22:19;-2.66;93.36
68109;SHT30;54893;49.864;19.084;2022-11-20T07:27:21;-2.29;90.54
68109;SHT30;54893;49.864;19.084;2022-11-20T07:32:22;-2.12;89.80
68109;SHT30;54893;49.864;19.084;2022-11-20T07:37:22;-1.99;89.92
68109;SHT30;54893;49.864;19.084;2022-11-20T07:42:23;-1.91;89.35
68109;SHT30;54893;49.864;19.084;2022-11-20T07:47:23;-1.74;90.15
68109;SHT30;54893;49.864;19.084;2022-11-20T07:52:23;-1.67;90.06
68109;SHT30;54893;49.864;19.084;2022-11-20T07:57:24;-1.77;90.09
68109;SHT30;54893;49.864;19.084;2022-11-20T08:02:24;-1.77;89.49
68109;SHT30;54893;49.864;19.084;2022-11-20T08:07:25;-1.81;90.38
68109;SHT30;54893;49.864;19.084;2022-11-20T08:12:25;-1.68;90.08
68109;SHT30;54893;49.864;19.084;2022-11-20T08:17:44;-1.47;91.45
68109;SHT30;54893;49.864;19.084;2022-11-20T08:22:44;-1.44;90.14
68109;SHT30;54893;49.864;19.084;2022-11-20T08:27:45;-1.44;87.82
68109;SHT30;54893;49.864;19.084;2022-11-20T08:32:45;-1.42;85.33
68109;SHT30;54893;49.864;19.084;2022-11-20T08:37:46;-1.09;86.12
68109;SHT30;54893;49.864;19.084;2022-11-20T08:42:48;-0.68;88.72
68109;SHT30;54893;49.864;19.084;2022-11-20T08:47:49;-0.17;88.59
68109;SHT30;54893;49.864;19.084;2022-11-20T08:52:49;0.27;87.83
68109;SHT30;54893;49.864;19.084;2022-11-20T08:57:49;0.47;84.72
68109;SHT30;54893;49.864;19.084;2022-11-20T09:02:50;0.44;85.11
68109;SHT30;54893;49.864;19.084;2022-11-20T09:07:50;0.34;84.63
68109;SHT30;54893;49.864;19.084;2022-11-20T09:12:51;0.23;85.98
68109;SHT30;54893;49.864;19.084;2022-11-20T09:17:59;0.33;87.07
68109;SHT30;54893;49.864;19.084;2022-11-20T09:23:00;0.23;83.80
68109;SHT30;54893;49.864;19.084;2022-11-20T09:28:00;0.33;85.90
68109;SHT30;54893;49.864;19.084;2022-11-20T09:33:00;0.39;85.28
68109;SHT30;54893;49.864;19.084;2022-11-20T09:38:05;0.27;84.42
68109;SHT30;54893;49.864;19.084;2022-11-20T09:43:22;0.41;85.67
68109;SHT30;54893;49.864;19.084;2022-11-20T09:48:58;0.39;86.37
68109;SHT30;54893;49.864;19.084;2022-11-20T09:54:18;0.53;86.25
68109;SHT30;54893;49.864;19.084;2022-11-20T09:59:33;0.54;85.34
68109;SHT30;54893;49.864;19.084;2022-11-20T10:04:36;0.67;84.99
68109;SHT30;54893;49.864;19.084;2022-11-20T10:09:55;0.61;82.81
68109;SHT30;54893;49.864;19.084;2022-11-20T10:15:25;0.70;82.87
68109;SHT30;54893;49.864;19.084;2022-11-20T10:20:43;0.88;82.08
68109;SHT30;54893;49.864;19.084;2022-11-20T10:31:33;1.15;82.90
68109;SHT30;54893;49.864;19.084;2022-11-20T10:36:48;1.25;83.00
68109;SHT30;54893;49.864;19.084;2022-11-20T10:41:52;1.02;79.39
68109;SHT30;54893;49.864;19.084;2022-11-20T10:46:54;1.35;82.04
68109;SHT30;54893;49.864;19.084;2022-11-20T10:52:06;1.67;80.19
68109;SHT30;54893;49.864;19.084;2022-11-20T10:57:31;1.80;79.77
68109;SHT30;54893;49.864;19.084;2022-11-20T11:02:43;1.89;78.31
68109;SHT30;54893;49.864;19.084;2022-11-20T11:07:45;2.06;81.18
68109;SHT30;54893;49.864;19.084;2022-11-20T11:12:47;2.17;78.25
68109;SHT30;54893;49.864;19.084;2022-11-20T11:17:50;2.24;79.55
68109;SHT30;54893;49.864;19.084;2022-11-20T11:22:51;2.28;79.14
68109;SHT30;54893;49.864;19.084;2022-11-20T11:27:54;2.45;79.11
68109;SHT30;54893;49.864;19.084;2022-11-20T11:33:06;2.28;80.57
68109;SHT30;54893;49.864;19.084;2022-11-20T11:38:16;1.76;78.82
68109;SHT30;54893;49.864;19.084;2022-11-20T11:43:23;1.60;83.50
68109;SHT30;54893;49.864;19.084;2022-11-20T11:48:55;1.60;83.89
68109;SHT30;54893;49.864;19.084;2022-11-20T11:53:58;1.74;79.16
68109;SHT30;54893;49.864;19.084;2022-11-20T11:59:04;1.52;78.90
68109;SHT30;54893;49.864;19.084;2022-11-20T12:09:20;1.35;82.35
68109;SHT30;54893;49.864;19.084;2022-11-20T12:14:33;1.52;80.68
68109;SHT30;54893;49.864;19.084;2022-11-20T12:19:34;2.26;80.40
68109;SHT30;54893;49.864;19.084;2022-11-20T12:30:04;1.92;79.49
68109;SHT30;54893;49.864;19.084;2022-11-20T12:41:04;2.21;78.78
68109;SHT30;54893;49.864;19.084;2022-11-20T12:46:25;2.13;79.12
68109;SHT30;54893;49.864;19.084;2022-11-20T12:56:48;1.94;80.54
68109;SHT30;54893;49.864;19.084;2022-11-20T13:01:53;1.76;80.74
68109;SHT30;54893;49.864;19.084;2022-11-20T13:06:56;1.58;81.13
68109;SHT30;54893;49.864;19.084;2022-11-20T13:17:20;1.66;81.42
68109;SHT30;54893;49.864;19.084;2022-11-20T13:22:42;1.43;81.39
68109;SHT30;54893;49.864;19.084;2022-11-20T13:27:47;1.36;82.68
68109;SHT30;54893;49.864;19.084;2022-11-20T13:32:50;1.02;83.60
68109;SHT30;54893;49.864;19.084;2022-11-20T13:38:20;0.72;84.49
68109;SHT30;54893;49.864;19.084;2022-11-20T13:43:42;0.53;84.97
68109;SHT30;54893;49.864;19.084;2022-11-20T13:48:44;0.36;85.52
68109;SHT30;54893;49.864;19.084;2022-11-20T14:04:29;-0.04;87.34
68109;SHT30;54893;49.864;19.084;2022-11-20T14:09:32;-0.04;87.91
68109;SHT30;54893;49.864;19.084;2022-11-20T14:14:33;-0.01;87.37
68109;SHT30;54893;49.864;19.084;2022-11-20T14:19:34;0.07;87.21
68109;SHT30;54893;49.864;19.084;2022-11-20T14:24:35;-0.03;88.26
68109;SHT30;54893;49.864;19.084;2022-11-20T14:29:37;0.03;87.62
68109;SHT30;54893;49.864;19.084;2022-11-20T14:34:40;0.06;88.61
68109;SHT30;54893;49.864;19.084;2022-11-20T14:39:42;0.02;89.33
68109;SHT30;54893;49.864;19.084;2022-11-20T14:44:49;-0.03;90.10
68109;SHT30;54893;49.864;19.084;2022-11-20T14:49:51;0.00;90.01
68109;SHT30;54893;49.864;19.084;2022-11-20T14:54:56;0.02;90.38
68109;SHT30;54893;49.864;19.084;2022-11-20T15:05:12;0.03;90.30
68109;SHT30;54893;49.864;19.084;2022-11-20T15:15:31;0.07;90.55
68109;SHT30;54893;49.864;19.084;2022-11-20T15:20:33;0.05;91.19
68109;SHT30;54893;49.864;19.084;2022-11-20T15:25:37;0.00;91.54
68109;SHT30;54893;49.864;19.084;2022-11-20T15:30:38;0.02;91.05
68109;SHT30;54893;49.864;19.084;2022-11-20T15:35:38;0.05;91.52
68109;SHT30;54893;49.864;19.084;2022-11-20T15:40:39;0.11;91.87
68109;SHT30;54893;49.864;19.084;2022-11-20T15:51:12;0.16;91.15
68109;SHT30;54893;49.864;19.084;2022-11-20T15:56:17;0.21;91.20
68109;SHT30;54893;49.864;19.084;2022-11-20T16:01:21;0.27;91.56
68109;SHT30;54893;49.864;19.084;2022-11-20T16:06:21;0.44;90.03
68109;SHT30;54893;49.864;19.084;2022-11-20T16:11:21;0.67;88.79
68109;SHT30;54893;49.864;19.084;2022-11-20T16:16:41;0.95;87.63
68109;SHT30;54893;49.864;19.084;2022-11-20T16:21:43;1.04;87.50
68109;SHT30;54893;49.864;19.084;2022-11-20T16:26:44;1.01;88.03
68109;SHT30;54893;49.864;19.084;2022-11-20T16:31:44;0.85;90.25
68109;SHT30;54893;49.864;19.084;2022-11-20T16:36:44;0.74;88.86
68109;SHT30;54893;49.864;19.084;2022-11-20T16:41:45;0.87;90.54
68109;SHT30;54893;49.864;19.084;2022-11-20T16:46:45;0.65;91.90
68109;SHT30;54893;49.864;19.084;2022-11-20T16:51:45;0.62;91.30
68109;SHT30;54893;49.864;19.084;2022-11-20T16:56:46;0.60;90.83
68109;SHT30;54893;49.864;19.084;2022-11-20T17:01:50;0.77;89.40
68109;SHT30;54893;49.864;19.084;2022-11-20T17:06:51;0.96;88.74
68109;SHT30;54893;49.864;19.084;2022-11-20T17:11:51;1.08;88.64
68109;SHT30;54893;49.864;19.084;2022-11-20T17:16:52;1.06;89.07
68109;SHT30;54893;49.864;19.084;2022-11-20T17:21:52;0.96;89.01
68109;SHT30;54893;49.864;19.084;2022-11-20T17:26:52;0.87;89.29
68109;SHT30;54893;49.864;19.084;2022-11-20T17:31:53;0.67;89.88
68109;SHT30;54893;49.864;19.084;2022-11-20T17:36:53;0.51;90.73
68109;SHT30;54893;49.864;19.084;2022-11-20T17:41:54;0.24;91.60
68109;SHT30;54893;49.864;19.084;2022-11-20T17:47:13;0.24;91.77
68109;SHT30;54893;49.864;19.084;2022-11-20T17:52:13;0.07;91.99
68109;SHT30;54893;49.864;19.084;2022-11-20T17:57:13;-0.08;93.25
68109;SHT30;54893;49.864;19.084;2022-11-20T18:02:32;-0.25;93.78
68109;SHT30;54893;49.864;19.084;2022-11-20T18:07:33;-0.34;94.14
68109;SHT30;54893;49.864;19.084;2022-11-20T18:12:34;-0.41;93.79
68109;SHT30;54893;49.864;19.084;2022-11-20T18:17:34;-0.25;92.99
68109;SHT30;54893;49.864;19.084;2022-11-20T18:22:35;-0.08;92.66
68109;SHT30;54893;49.864;19.084;2022-11-20T18:27:36;0.20;91.11
68109;SHT30;54893;49.864;19.084;2022-11-20T18:32:37;0.26;94.46
68109;SHT30;54893;49.864;19.084;2022-11-20T18:37:37;0.06;94.62
68109;SHT30;54893;49.864;19.084;2022-11-20T18:42:38;0.06;94.83
68109;SHT30;54893;49.864;19.084;2022-11-20T18:47:57;0.27;93.69
68109;SHT30;54893;49.864;19.084;2022-11-20T18:52:57;0.41;92.60
68109;SHT30;54893;49.864;19.084;2022-11-20T18:57:57;0.34;92.72
68109;SHT30;54893;49.864;19.084;2022-11-20T19:02:57;0.49;92.39
68109;SHT30;54893;49.864;19.084;2022-11-20T19:07:58;0.68;91.28
68109;SHT30;54893;49.864;19.084;2022-11-20T19:12:58;0.96;91.29
68109;SHT30;54893;49.864;19.084;2022-11-20T19:17:58;1.02;91.62
68109;SHT30;54893;49.864;19.084;2022-11-20T19:23:00;1.02;91.42
68109;SHT30;54893;49.864;19.084;2022-11-20T19:28:01;1.11;91.61
68109;SHT30;54893;49.864;19.084;2022-11-20T19:33:01;1.11;91.87
68109;SHT30;54893;49.864;19.084;2022-11-20T19:38:01;1.05;92.70
68109;SHT30;54893;49.864;19.084;2022-11-20T19:43:02;1.12;92.55
68109;SHT30;54893;49.864;19.084;2022-11-20T19:48:04;1.19;92.25
68109;SHT30;54893;49.864;19.084;2022-11-20T19:53:04;1.14;92.51
68109;SHT30;54893;49.864;19.084;2022-11-20T19:58:06;1.11;92.64
68109;SHT30;54893;49.864;19.084;2022-11-20T20:03:06;1.16;92.55
68109;SHT30;54893;49.864;19.084;2022-11-20T20:08:07;0.94;93.10
68109;SHT30;54893;49.864;19.084;2022-11-20T20:13:07;0.70;93.47
68109;SHT30;54893;49.864;19.084;2022-11-20T20:18:09;0.65;94.03
68109;SHT30;54893;49.864;19.084;2022-11-20T20:23:09;0.51;95.26
68109;SHT30;54893;49.864;19.084;2022-11-20T20:28:10;0.39;95.58
68109;SHT30;54893;49.864;19.084;2022-11-20T20:33:10;0.21;96.08
68109;SHT30;54893;49.864;19.084;2022-11-20T20:38:11;0.11;97.27
68109;SHT30;54893;49.864;19.084;2022-11-20T20:43:11;-0.04;97.03
68109;SHT30;54893;49.864;19.084;2022-11-20T20:48:11;0.03;96.56
68109;SHT30;54893;49.864;19.084;2022-11-20T20:53:12;0.11;96.05
68109;SHT30;54893;49.864;19.084;2022-11-20T20:58:12;0.26;96.11
68109;SHT30;54893;49.864;19.084;2022-11-20T21:03:12;0.21;96.48
68109;SHT30;54893;49.864;19.084;2022-11-20T21:08:13;0.21;96.88
68109;SHT30;54893;49.864;19.084;2022-11-20T21:13:23;0.28;96.40
68109;SHT30;54893;49.864;19.084;2022-11-20T21:18:24;0.41;94.24
68109;SHT30;54893;49.864;19.084;2022-11-20T21:23:24;0.47;95.02
68109;SHT30;54893;49.864;19.084;2022-11-20T21:28:25;0.54;95.87
68109;SHT30;54893;49.864;19.084;2022-11-20T21:33:25;0.57;95.92
68109;SHT30;54893;49.864;19.084;2022-11-20T21:38:25;0.62;94.27
68109;SHT30;54893;49.864;19.084;2022-11-20T21:43:26;0.58;96.14
68109;SHT30;54893;49.864;19.084;2022-11-20T21:48:28;0.46;96.61
68109;SHT30;54893;49.864;19.084;2022-11-20T21:53:29;0.34;96.68
68109;SHT30;54893;49.864;19.084;2022-11-20T21:58:30;0.53;95.49
68109;SHT30;54893;49.864;19.084;2022-11-20T22:03:30;0.62;95.12
68109;SHT30;54893;49.864;19.084;2022-11-20T22:08:31;0.50;95.75
68109;SHT30;54893;49.864;19.084;2022-11-20T22:13:32;0.51;95.46
68109;SHT30;54893;49.864;19.084;2022-11-20T22:18:53;0.41;97.06
68109;SHT30;54893;49.864;19.084;2022-11-20T22:23:54;0.46;96.58
68109;SHT30;54893;49.864;19.084;2022-11-20T22:28:56;0.50;96.10
68109;SHT30;54893;49.864;19.084;2022-11-20T22:33:57;0.46;96.78
68109;SHT30;54893;49.864;19.084;2022-11-20T22:39:01;0.50;97.07
68109;SHT30;54893;49.864;19.084;2022-11-20T22:44:03;0.56;96.80
68109;SHT30;54893;49.864;19.084;2022-11-20T22:49:06;0.61;97.32
68109;SHT30;54893;49.864;19.084;2022-11-20T22:54:10;0.65;95.65
68109;SHT30;54893;49.864;19.084;2022-11-20T22:59:11;0.88;95.17
68109;SHT30;54893;49.864;19.084;2022-11-20T23:04:12;1.05;94.91
68109;SHT30;54893;49.864;19.084;2022-11-20T23:09:12;1.16;94.88
68109;SHT30;54893;49.864;19.084;2022-11-20T23:14:13;1.12;95.22
68109;SHT30;54893;49.864;19.084;2022-11-20T23:19:15;1.06;95.53
68109;SHT30;54893;49.864;19.084;2022-11-20T23:24:15;1.12;95.76
68109;SHT30;54893;49.864;19.084;2022-11-20T23:29:15;1.38;95.21
68109;SHT30;54893;49.864;19.084;2022-11-20T23:34:16;1.49;94.85
68109;SHT30;54893;49.864;19.084;2022-11-20T23:39:16;1.67;94.38
68109;SHT30;54893;49.864;19.084;2022-11-20T23:44:17;1.79;93.79
68109;SHT30;54893;49.864;19.084;2022-11-20T23:49:17;1.84;93.40
68109;SHT30;54893;49.864;19.084;2022-11-20T23:54:17;1.93;92.94
68109;SHT30;54893;49.864;19.084;2022-11-20T23:59:18;2.03;92.58
